Onyx, CA

8:27 AM PDT on March 23, 2017 (GMT -0700)
5 miles West of town | | Change Station

Elev 2400 ft 35.65 °N, 117.76 °W | Updated 2 minutes ago

Partly Cloudy
Partly Cloudy
53.5 °F
Feels Like 53.5 °F
N
3.0
Wind Variable Wind from WNW
Gusts 6.0 mph

Today
High -- | Low -- °F
--% Chance of Precip.
Yesterday
High -- | Low -- °F
Precip. -- in
Pressure 29.96 in
Visibility 10.0 miles
Clouds Few 8500 ft
Dew Point 24.3 °F
Humidity 32%
Rainfall 0.00 in
Snow Depth Not available.
6:51 AM 7:07 PM
Waning Crescent, 22% visible
METAR KNID 231456Z 27011KT 10SM FEW085 12/M03 A2997 RMK AO2 SLP146 T01171028 53019 $
Pressure 29.96 in
Visibility 10.0 miles
Clouds Few 8500 ft
Dew Point 24.3 °F
Humidity 32%
Rainfall 0.00 in
Snow Depth Not available.
6:51 AM 7:07 PM
Waning Crescent, 22% visible
METAR KNID 231456Z 27011KT 10SM FEW085 12/M03 A2997 RMK AO2 SLP146 T01171028 53019 $

Get Severe Weather Alerts

Thanks for signing up!

Be on the lookout for a verification email in your inbox.

You'll start receiving the daily forecast at 8 AM.

×

10-Day Weather Forecast

Almanac

Astronomy

Mar. 23, 2017 Rise Set
Actual Time
Civil Twilight
Nautical Twilight
Astronomical Twilight
Moon
Length of Visible Light
Length of Day
Tomorrow will be .
, % of the Moon is Illuminated

Today's Extremes

State Highs State Lows

Community

WunderPhotos

Upload Photos

1,962,540 photos uploaded!

WunderBlog® & News

Nearby

Air Quality

  Air Quality AQ Index Pollutant
Not available.

Snow Depth

Station Depth Elevation

Earthquake Activity

City Distance Mag. Time & Date
Minimum magnitude displayed is 2.5.

Earthquake Activity

City Distance Mag. Time & Date
Minimum magnitude displayed is 2.5.

Coastal Water Temperatures

Place Temperature

Stations

Nearby Weather Stations

Station Location Temp. Windchill Dew Point Humidity Wind Precip. Elev Updated Type
                   

Watches & Warnings

There are currently no watches in effect.